Time;durP1;ratioP1;P1;durP2;ratioP2;P2;SDS_P1;SDS_P2;PMS_P1;PMS_P2;Temp;Humidity;BMP_temperature;BMP_pressure;BME280_temperature;BME280_humidity;BME280_pressure;Samples;Min_cycle;Max_cycle;Signal;HPM_P1;HPM_P2
2023/04/20 00:01:29;;;;;;;5.60;1.90;;;;;;;17.26;58.68;96438.53;10357882;28;20030;-33
2023/04/20 00:06:31;;;;;;;5.57;1.60;;;;;;;17.23;58.21;96425.91;10360404;28;20085;-34
2023/04/20 00:11:32;;;;;;;2.58;1.70;;;;;;;17.22;58.70;96414.06;10363059;28;20135;-34
2023/04/20 00:16:32;;;;;;;5.97;1.93;;;;;;;17.20;58.31;96406.50;10362407;28;20049;-33
2023/04/20 00:21:33;;;;;;;3.58;1.60;;;;;;;17.22;58.78;96409.88;10354576;28;20061;-34
2023/04/20 00:26:34;;;;;;;4.57;1.85;;;;;;;17.23;58.29;96393.00;10371235;28;20048;-34
2023/04/20 00:31:34;;;;;;;3.20;2.10;;;;;;;17.23;58.56;96388.78;10357005;28;20030;-33
2023/04/20 00:36:35;;;;;;;3.72;1.60;;;;;;;17.24;57.47;96379.50;10368357;28;20034;-34
2023/04/20 00:41:35;;;;;;;3.22;1.52;;;;;;;17.24;59.21;96366.88;10350283;28;20029;-33
2023/04/20 00:46:36;;;;;;;3.38;2.15;;;;;;;17.25;59.34;96366.03;10360839;28;20041;-33
2023/04/20 00:51:38;;;;;;;2.20;1.48;;;;;;;17.26;59.25;96357.59;10360339;28;20491;-33
2023/04/20 00:56:39;;;;;;;2.53;1.70;;;;;;;17.27;58.14;96349.16;10359341;28;20022;-33
2023/04/20 01:01:41;;;;;;;3.13;1.60;;;;;;;17.24;57.87;96349.16;10361923;28;20034;-33
2023/04/20 01:06:41;;;;;;;3.13;1.95;;;;;;;17.23;59.02;96337.34;10366482;28;20511;-33
2023/04/20 01:11:42;;;;;;;6.40;1.73;;;;;;;17.24;57.92;96323.88;10352802;28;20037;-34
2023/04/20 01:16:43;;;;;;;2.37;1.50;;;;;;;17.23;58.29;96332.31;10354013;28;20308;-33
2023/04/20 01:21:46;;;;;;;3.35;1.33;;;;;;;17.22;58.45;96310.34;10356814;28;20296;-34
2023/04/20 01:26:47;;;;;;;4.15;1.50;;;;;;;17.22;57.82;96318.78;10352597;28;20567;-34
2023/04/20 01:31:47;;;;;;;2.90;1.60;;;;;;;17.23;58.31;96312.06;10366105;28;20119;-33
2023/04/20 01:36:47;;;;;;;3.07;1.80;;;;;;;17.21;58.26;96304.47;10365564;28;20034;-33
2023/04/20 01:41:48;;;;;;;2.03;1.57;;;;;;;17.21;58.47;96304.47;10355147;28;20034;-33
2023/04/20 01:46:48;;;;;;;2.47;1.50;;;;;;;17.20;59.43;96302.78;10364605;28;20301;-33
2023/04/20 01:51:49;;;;;;;2.20;1.30;;;;;;;17.23;58.77;96290.13;10357759;28;20290;-34
2023/04/20 01:56:49;;;;;;;2.55;1.70;;;;;;;17.22;58.63;96282.53;10359570;28;20033;-33
2023/04/20 02:01:49;;;;;;;2.43;1.90;;;;;;;17.25;58.32;96290.13;10349303;28;20041;-33
2023/04/20 02:06:50;;;;;;;1.87;1.40;;;;;;;17.24;57.70;96280.84;10347847;28;20499;-33
2023/04/20 02:11:50;;;;;;;3.50;1.40;;;;;;;17.22;58.08;96274.94;10346199;28;20289;-32
2023/04/20 02:16:52;;;;;;;5.03;1.67;;;;;;;17.22;57.99;96265.66;10365111;28;20506;-33
2023/04/20 02:21:52;;;;;;;6.18;2.10;;;;;;;17.22;58.70;96252.16;10365459;28;20041;-33
2023/04/20 02:26:52;;;;;;;2.30;1.50;;;;;;;17.21;58.22;96237.84;10368438;28;20023;-33
2023/04/20 02:31:53;;;;;;;2.17;1.60;;;;;;;17.22;57.33;96235.31;10366875;28;20439;-33
2023/04/20 02:36:53;;;;;;;2.67;1.27;;;;;;;17.24;57.40;96233.63;10371535;28;20108;-34
2023/04/20 02:41:53;;;;;;;2.20;1.23;;;;;;;17.25;57.55;96234.47;10353296;28;20370;-34
2023/04/20 02:46:54;;;;;;;3.33;1.45;;;;;;;17.24;57.16;96228.56;10371693;28;20038;-33
2023/04/20 02:51:57;;;;;;;5.00;1.60;;;;;;;17.26;58.37;96224.31;10362193;28;20030;-33
2023/04/20 02:56:58;;;;;;;3.53;1.47;;;;;;;17.27;58.57;96220.97;10349483;28;20033;-34
2023/04/20 03:01:58;;;;;;;2.30;1.75;;;;;;;17.30;57.33;96225.16;10356559;28;20030;-33
2023/04/20 03:07:00;;;;;;;3.67;1.50;;;;;;;17.28;57.04;96215.06;10363689;28;20471;-34
2023/04/20 03:12:04;;;;;;;2.80;1.38;;;;;;;17.28;57.68;96216.75;10365528;28;20034;-33
2023/04/20 03:17:19;;;;;;;2.85;1.40;;;;;;;17.26;57.38;96215.91;10350705;28;20571;-33
2023/04/20 03:22:20;;;;;;;2.65;1.80;;;;;;;17.23;57.43;96206.63;10365274;28;20048;-34
2023/04/20 03:27:23;;;;;;;2.22;1.55;;;;;;;17.23;57.34;96206.63;10376245;28;20104;-34
2023/04/20 03:32:37;;;;;;;4.45;1.33;;;;;;;17.23;56.92;96205.81;10358606;28;20061;-33
2023/04/20 03:37:37;;;;;;;2.63;1.42;;;;;;;17.22;57.92;96199.03;10357337;28;20109;-33
2023/04/20 03:42:40;;;;;;;2.90;1.60;;;;;;;17.21;57.58;96198.22;10354635;28;20052;-33
2023/04/20 03:47:40;;;;;;;4.47;1.60;;;;;;;17.23;57.11;96201.59;10354946;28;20048;-33
2023/04/20 03:52:41;;;;;;;2.47;1.20;;;;;;;17.24;58.10;96192.31;10371964;28;20041;-33
2023/04/20 03:57:42;;;;;;;3.47;1.40;;;;;;;17.24;58.81;96177.13;10357906;28;20822;-34
2023/04/20 04:02:43;;;;;;;4.07;1.50;;;;;;;17.26;57.70;96181.31;10359003;28;20170;-33
2023/04/20 04:07:43;;;;;;;2.75;1.20;;;;;;;17.25;57.14;96184.69;10365513;28;20034;-33
2023/04/20 04:12:46;;;;;;;3.40;1.60;;;;;;;17.20;57.20;96172.91;10349332;28;20030;-31
2023/04/20 04:17:47;;;;;;;2.97;1.58;;;;;;;17.22;57.62;96183.88;10359602;28;20038;-30
2023/04/20 04:22:48;;;;;;;1.40;1.20;;;;;;;17.20;57.86;96183.91;10356017;28;20038;-31
2023/04/20 04:28:17;;;;;;;4.78;1.58;;;;;;;17.18;58.42;96179.69;10309667;28;20061;-32
2023/04/20 04:33:29;;;;;;;7.80;2.00;;;;;;;17.17;58.83;96180.53;10360067;28;20093;-32
2023/04/20 04:38:32;;;;;;;4.85;1.50;;;;;;;17.17;58.54;96178.00;10358655;28;20037;-33
2023/04/20 04:43:32;;;;;;;2.00;1.30;;;;;;;17.21;57.38;96170.41;10361156;28;20038;-33
2023/04/20 04:48:42;;;;;;;6.68;1.27;;;;;;;17.24;57.73;96172.09;10370039;28;20034;-32
2023/04/20 04:53:45;;;;;;;7.20;2.15;;;;;;;17.18;58.63;96177.16;10369006;28;20045;-33
2023/04/20 04:58:45;;;;;;;4.50;1.50;;;;;;;17.31;58.57;96178.81;10346616;28;20034;-32
2023/04/20 05:03:46;;;;;;;5.57;2.07;;;;;;;17.37;59.42;96173.72;10369269;28;20041;-39
2023/04/20 05:08:46;;;;;;;4.27;1.53;;;;;;;17.38;58.07;96175.41;10368119;28;20026;-32
2023/04/20 05:13:47;;;;;;;4.20;2.73;;;;;;;17.37;57.22;96171.19;10361503;28;20296;-32
2023/04/20 05:18:47;;;;;;;3.45;1.60;;;;;;;17.38;56.80;96176.25;10360995;28;20042;-32
2023/04/20 05:23:48;;;;;;;9.30;2.20;;;;;;;17.34;58.02;96169.47;10355923;28;20038;-32
2023/04/20 05:28:48;;;;;;;5.03;1.60;;;;;;;17.27;56.31;96172.06;10358985;28;20037;-33
2023/04/20 05:33:49;;;;;;;5.37;2.20;;;;;;;17.08;55.79;96171.28;10311859;28;20224;-33
2023/04/20 05:38:49;;;;;;;5.47;2.30;;;;;;;16.97;55.48;96174.69;10306765;28;20072;-33
2023/04/20 05:43:49;;;;;;;4.47;2.57;;;;;;;17.09;55.36;96177.19;10311376;28;20864;-32
2023/04/20 05:48:50;;;;;;;6.13;2.53;;;;;;;17.16;55.51;96173.78;10356715;28;20068;-34
2023/04/20 05:53:50;;;;;;;7.43;3.10;;;;;;;17.17;55.63;96173.75;10340302;28;20049;-33
2023/04/20 05:58:51;;;;;;;5.07;2.30;;;;;;;17.19;55.46;96168.72;10340856;28;20783;-33
2023/04/20 06:03:51;;;;;;;7.10;2.72;;;;;;;17.24;56.54;96172.09;10356521;28;20034;-33
2023/04/20 06:08:52;;;;;;;10.90;2.70;;;;;;;17.24;57.24;96172.91;10357408;28;20084;-33
2023/04/20 06:13:52;;;;;;;7.15;2.90;;;;;;;17.19;56.87;96173.78;10347366;28;20377;-33
2023/04/20 06:18:52;;;;;;;27.03;3.60;;;;;;;17.16;56.22;96174.63;10343369;28;20396;-33
2023/04/20 06:23:53;;;;;;;14.57;2.88;;;;;;;17.19;56.07;96168.72;10361258;28;20496;-32
2023/04/20 06:28:53;;;;;;;12.60;2.70;;;;;;;17.20;55.40;96161.13;10357199;28;20513;-32
2023/04/20 06:33:53;;;;;;;9.60;2.73;;;;;;;17.20;56.18;96162.81;10366646;28;20116;-33
2023/04/20 06:38:54;;;;;;;13.30;2.40;;;;;;;17.20;56.11;96171.25;10348000;28;20030;-33
2023/04/20 06:43:54;;;;;;;10.60;2.43;;;;;;;17.12;55.69;96164.53;10358067;28;20030;-33
2023/04/20 06:48:54;;;;;;;10.13;1.80;;;;;;;17.14;55.65;96162.84;10355521;28;20030;-33
2023/04/20 06:53:55;;;;;;;3.00;1.90;;;;;;;17.13;55.65;96164.53;10358743;28;20385;-33
2023/04/20 06:58:55;;;;;;;28.27;4.60;;;;;;;17.07;57.44;96158.66;10365355;28;20132;-32
2023/04/20 07:03:56;;;;;;;21.23;3.73;;;;;;;17.06;57.95;96170.44;10366459;28;20048;-32
2023/04/20 07:08:56;;;;;;;15.10;2.87;;;;;;;17.05;58.62;96160.31;10354272;28;20029;-33
2023/04/20 07:13:56;;;;;;;10.03;2.90;;;;;;;17.00;58.59;96162.88;10364156;28;20300;-32
2023/04/20 07:18:57;;;;;;;4.97;2.40;;;;;;;17.07;55.67;96163.72;10365001;28;20040;-33
2023/04/20 07:23:57;;;;;;;5.37;2.20;;;;;;;17.06;56.44;96162.03;10366486;28;20037;-32
2023/04/20 07:28:58;;;;;;;8.88;2.20;;;;;;;17.09;53.75;96156.97;10363269;28;20043;-33
2023/04/20 07:33:58;;;;;;;8.77;2.13;;;;;;;17.05;56.51;96160.31;10372685;28;20073;-32
2023/04/20 07:38:59;;;;;;;5.73;2.27;;;;;;;17.04;54.65;96153.59;10358279;28;20535;-33
2023/04/20 07:43:59;;;;;;;2.03;1.50;;;;;;;17.02;54.02;96156.16;10348110;28;20034;-33
2023/04/20 07:48:59;;;;;;;7.97;3.38;;;;;;;17.00;53.70;96146.88;10353318;28;20038;-32
2023/04/20 07:54:00;;;;;;;12.60;2.40;;;;;;;17.02;57.45;96151.09;10352039;28;20091;-33
2023/04/20 07:59:00;;;;;;;9.03;2.37;;;;;;;17.03;56.68;96152.75;10354594;28;20087;-33
2023/04/20 08:04:01;;;;;;;3.17;2.50;;;;;;;17.04;57.26;96149.38;10346163;28;20041;-33
2023/04/20 08:09:03;;;;;;;3.08;2.63;;;;;;;17.03;54.22;96154.44;10363030;28;20168;-33
2023/04/20 08:14:03;;;;;;;7.38;2.58;;;;;;;17.01;56.32;96140.97;10359522;28;20039;-33
2023/04/20 08:19:08;;;;;;;8.47;2.73;;;;;;;17.09;57.84;96134.19;10355333;28;20042;-33
2023/04/20 08:24:09;;;;;;;6.03;2.20;;;;;;;17.13;57.51;96134.16;10336107;28;20056;-33
2023/04/20 08:29:09;;;;;;;3.05;1.92;;;;;;;17.12;56.13;96136.69;10369230;28;20029;-33
2023/04/20 08:34:10;;;;;;;3.58;2.08;;;;;;;17.09;54.40;96131.66;10365894;28;20092;-32
2023/04/20 08:39:13;;;;;;;4.00;2.28;;;;;;;17.08;54.52;96135.03;10367538;28;20089;-33
2023/04/20 08:44:14;;;;;;;7.53;2.38;;;;;;;17.10;58.33;96138.41;10353333;28;20026;-32
2023/04/20 08:49:16;;;;;;;3.50;2.00;;;;;;;17.10;58.72;96135.88;10353662;28;20037;-33
2023/04/20 08:54:16;;;;;;;2.92;2.00;;;;;;;17.09;58.39;96137.53;10360508;28;20292;-33
2023/04/20 08:59:16;;;;;;;4.70;2.40;;;;;;;17.10;57.11;96143.47;10336429;28;20034;-32
2023/04/20 09:04:19;;;;;;;4.70;1.83;;;;;;;17.07;57.80;96139.25;10356877;28;20029;-32
2023/04/20 09:09:21;;;;;;;5.60;2.10;;;;;;;17.08;58.70;96133.34;10355366;28;20304;-33
2023/04/20 09:14:21;;;;;;;5.93;1.50;;;;;;;17.10;58.89;96138.41;10352776;28;20034;-34
2023/04/20 09:19:25;;;;;;;4.23;2.10;;;;;;;17.11;54.97;96129.97;10364338;28;20682;-33
2023/04/20 09:24:31;;;;;;;11.27;4.07;;;;;;;17.13;58.63;96118.16;10356483;28;20037;-33
2023/04/20 09:29:31;;;;;;;7.13;3.50;;;;;;;17.15;57.93;96124.06;10358183;28;20057;-33
2023/04/20 09:34:43;;;;;;;5.27;2.97;;;;;;;17.07;56.71;96119.00;10349963;28;20113;-33
2023/04/20 09:39:45;;;;;;;6.65;2.50;;;;;;;17.08;56.60;96107.22;10350645;28;20504;-32
2023/04/20 09:44:45;;;;;;;5.53;2.35;;;;;;;17.07;54.97;96103.03;10365489;28;20034;-33
2023/04/20 09:49:49;;;;;;;5.83;2.97;;;;;;;17.09;54.95;96103.84;10365993;28;20037;-33
2023/04/20 09:54:50;;;;;;;4.15;2.42;;;;;;;17.09;54.48;96093.72;10364901;28;20049;-32
2023/04/20 09:59:51;;;;;;;3.70;3.00;;;;;;;17.12;55.10;96093.69;10361059;28;20500;-33
2023/04/20 10:04:57;;;;;;;6.65;3.33;;;;;;;17.15;54.46;96097.06;10359700;28;20045;-33
2023/04/20 10:10:09;;;;;;;9.98;3.33;;;;;;;17.12;56.16;96103.81;10364111;28;20060;-32
2023/04/20 10:15:09;;;;;;;5.68;2.70;;;;;;;17.10;57.13;96103.84;10363557;28;20495;-33
2023/04/20 10:20:22;;;;;;;6.55;3.85;;;;;;;17.12;54.82;96106.34;10353519;28;20034;-32
2023/04/20 10:25:25;;;;;;;5.53;3.00;;;;;;;17.13;56.55;96108.03;10365133;28;20033;-32
2023/04/20 10:30:27;;;;;;;2.88;2.15;;;;;;;17.17;57.63;96097.06;10364352;28;20463;-33
2023/04/20 10:35:28;;;;;;;8.63;2.67;;;;;;;17.13;57.20;96102.97;10358809;28;20076;-33
2023/04/20 10:40:29;;;;;;;6.68;2.38;;;;;;;17.09;56.61;96091.19;10367458;28;20030;-33
2023/04/20 10:45:40;;;;;;;8.95;2.50;;;;;;;17.06;56.59;96106.41;10365797;28;20034;-33
2023/04/20 10:50:40;;;;;;;5.38;2.47;;;;;;;17.04;57.29;96103.00;10361239;28;20037;-33
2023/04/20 10:55:41;;;;;;;6.40;2.13;;;;;;;17.03;57.00;96098.81;10367922;28;20037;-33
2023/04/20 11:00:41;;;;;;;5.80;2.08;;;;;;;17.01;56.59;96103.88;10362051;28;20037;-33
2023/04/20 11:05:48;;;;;;;4.33;1.87;;;;;;;17.04;56.87;96103.00;10357588;28;20034;-32
2023/04/20 11:10:49;;;;;;;3.20;2.00;;;;;;;17.07;56.51;96105.56;10365393;28;20443;-33
2023/04/20 11:15:49;;;;;;;7.15;2.72;;;;;;;17.06;56.69;96088.69;10369709;28;20041;-33
2023/04/20 11:20:51;;;;;;;7.05;1.95;;;;;;;17.06;56.61;96081.13;10371963;28;20141;-33
2023/04/20 11:25:55;;;;;;;2.22;1.80;;;;;;;17.04;56.76;96082.78;10362208;28;20037;-33
2023/04/20 11:30:56;;;;;;;4.68;1.77;;;;;;;17.02;56.57;96092.06;10365914;28;20407;-32
2023/04/20 11:35:58;;;;;;;6.00;1.67;;;;;;;17.01;57.21;96091.25;10367595;28;20042;-32
2023/04/20 11:41:03;;;;;;;3.83;2.13;;;;;;;17.03;58.37;96081.97;10362261;28;20026;-33
2023/04/20 11:46:15;;;;;;;7.60;2.30;;;;;;;16.96;58.40;96069.34;10362529;28;20034;-33
2023/04/20 11:51:16;;;;;;;9.70;2.13;;;;;;;16.85;54.66;96086.25;10357820;28;20039;-33
2023/04/20 11:56:16;;;;;;;7.17;2.10;;;;;;;16.93;56.49;96074.41;10363437;28;20409;-33
2023/04/20 12:01:17;;;;;;;5.73;1.87;;;;;;;16.97;56.76;96060.91;10369505;28;20036;-32
2023/04/20 12:06:17;;;;;;;11.05;1.67;;;;;;;16.99;56.50;96069.34;10350758;28;20290;-32
2023/04/20 12:11:18;;;;;;;6.93;2.03;;;;;;;16.97;56.91;96065.94;10359643;28;20492;-33
2023/04/20 12:16:18;;;;;;;4.77;2.07;;;;;;;17.02;56.74;96069.31;10362241;28;20472;-33
2023/04/20 12:21:18;;;;;;;7.23;2.00;;;;;;;16.99;56.41;96052.47;10367902;28;20087;-32
2023/04/20 12:26:19;;;;;;;2.70;1.50;;;;;;;17.04;57.73;96067.63;10368647;28;20049;-34
2023/04/20 12:31:20;;;;;;;6.72;1.40;;;;;;;17.02;57.57;96066.78;10361040;28;20451;-32
2023/04/20 12:36:20;;;;;;;3.10;1.43;;;;;;;17.04;57.07;96062.56;10353997;28;20046;-32
2023/04/20 12:41:22;;;;;;;2.90;1.90;;;;;;;16.93;55.25;96059.25;10352956;28;20108;-33
2023/04/20 12:46:22;;;;;;;8.60;3.10;;;;;;;17.07;57.17;96052.44;10359075;28;20037;-33
2023/04/20 12:51:23;;;;;;;3.47;1.77;;;;;;;17.12;57.05;96043.13;10354805;28;20030;-33
2023/04/20 12:56:23;;;;;;;4.43;1.77;;;;;;;17.10;58.61;96037.25;10340982;28;20285;-33
2023/04/20 13:01:23;;;;;;;7.07;1.87;;;;;;;17.10;57.58;96037.25;10351782;28;20121;-32
2023/04/20 13:06:23;;;;;;;5.33;1.43;;;;;;;17.08;57.21;96039.78;10365379;28;20060;-33
2023/04/20 13:11:24;;;;;;;4.57;1.40;;;;;;;17.11;57.11;96044.81;10351000;28;20026;-33
2023/04/20 13:16:24;;;;;;;4.80;2.37;;;;;;;17.10;56.95;96052.41;10351560;28;20034;-32
2023/04/20 13:21:25;;;;;;;3.10;1.60;;;;;;;17.11;56.70;96049.03;10366237;28;20300;-33
2023/04/20 13:26:25;;;;;;;2.20;1.40;;;;;;;17.10;56.25;96049.88;10365597;28;20029;-32
2023/04/20 13:31:26;;;;;;;3.17;1.35;;;;;;;17.10;56.46;96045.69;10342330;28;20516;-32
2023/04/20 13:36:27;;;;;;;5.20;1.27;;;;;;;17.11;55.93;96033.84;10357727;28;20042;-33
2023/04/20 13:41:27;;;;;;;3.30;1.20;;;;;;;17.10;56.33;96027.13;10359779;28;20509;-33
2023/04/20 13:46:28;;;;;;;5.83;1.60;;;;;;;17.10;56.51;96024.59;10358715;28;20045;-33
2023/04/20 13:51:28;;;;;;;3.72;1.73;;;;;;;17.10;59.21;96017.00;10352937;28;20412;-33
2023/04/20 13:56:29;;;;;;;2.47;1.33;;;;;;;17.14;59.13;96029.63;10344937;28;20053;-33
2023/04/20 14:01:30;;;;;;;4.07;1.30;;;;;;;17.10;58.41;96014.47;10358928;28;20060;-34
2023/04/20 14:06:30;;;;;;;5.50;1.30;;;;;;;17.09;57.77;96020.41;10353068;28;21079;-35
2023/04/20 14:11:31;;;;;;;2.20;1.40;;;;;;;17.10;57.37;96034.72;10364726;28;20131;-33
2023/04/20 14:16:31;;;;;;;1.80;1.10;;;;;;;17.10;57.13;96042.31;10360901;28;20041;-33
2023/04/20 14:21:32;;;;;;;5.00;1.43;;;;;;;17.10;56.57;96044.81;10374586;28;20492;-33
2023/04/20 14:26:32;;;;;;;1.57;0.90;;;;;;;17.09;56.91;96045.69;10372743;28;20360;-33
2023/04/20 14:31:33;;;;;;;1.57;1.10;;;;;;;17.09;56.20;96051.56;10374418;28;20061;-33
2023/04/20 14:36:35;;;;;;;2.38;1.23;;;;;;;17.08;56.41;96044.00;10363608;28;20315;-34
2023/04/20 14:41:35;;;;;;;1.77;1.10;;;;;;;17.07;56.24;96050.72;10372272;28;20030;-33
2023/04/20 14:46:36;;;;;;;2.40;1.30;;;;;;;17.09;56.03;96050.75;10365942;28;20467;-32
2023/04/20 14:51:36;;;;;;;1.42;0.90;;;;;;;17.09;56.68;96055.78;10368735;28;20091;-33
2023/04/20 14:56:36;;;;;;;2.07;1.30;;;;;;;17.12;58.63;96056.63;10371206;28;20531;-33
2023/04/20 15:01:37;;;;;;;2.17;1.50;;;;;;;17.13;58.68;96058.28;10358094;28;20038;-33
2023/04/20 15:06:37;;;;;;;1.00;1.00;;;;;;;17.14;58.36;96056.63;10355402;28;20301;-32
2023/04/20 15:11:37;;;;;;;2.33;0.80;;;;;;;17.05;58.50;96054.13;10353290;28;20436;-32
2023/04/20 15:16:38;;;;;;;1.23;0.80;;;;;;;17.05;57.49;96039.78;10356784;28;20039;-32
2023/04/20 15:21:38;;;;;;;2.23;1.03;;;;;;;17.07;57.05;96053.25;10357551;28;20293;-33
2023/04/20 15:26:38;;;;;;;1.97;0.93;;;;;;;17.07;56.92;96042.31;10361236;28;20039;-33
2023/04/20 15:31:39;;;;;;;1.97;1.60;;;;;;;17.08;57.04;96036.41;10362335;28;20103;-33
2023/04/20 15:36:40;;;;;;;2.70;1.15;;;;;;;17.08;56.75;96038.94;10368751;28;20040;-33
2023/04/20 15:41:40;;;;;;;1.10;0.98;;;;;;;17.08;56.36;96054.13;10364859;28;20103;-33
2023/04/20 15:46:40;;;;;;;1.40;1.13;;;;;;;17.12;58.49;96063.34;10355949;28;20045;-33
2023/04/20 15:51:41;;;;;;;1.50;1.00;;;;;;;17.12;56.65;96063.34;10359944;28;20046;-33
2023/04/20 15:56:41;;;;;;;1.27;1.05;;;;;;;17.12;56.63;96066.75;10355766;28;20034;-33
2023/04/20 16:01:42;;;;;;;2.20;0.80;;;;;;;17.13;56.45;96062.50;10358389;28;20042;-33
2023/04/20 16:06:42;;;;;;;4.33;1.53;;;;;;;17.24;58.05;96065.84;10358106;28;20033;-32
2023/04/20 16:11:42;;;;;;;3.13;1.20;;;;;;;17.26;59.02;96082.66;10362074;28;20034;-33
2023/04/20 16:16:43;;;;;;;9.70;1.33;;;;;;;17.15;59.24;96066.72;10354563;28;20048;-33
2023/04/20 16:21:43;;;;;;;2.50;1.03;;;;;;;17.16;59.31;96077.69;10359945;28;20385;-32
2023/04/20 16:26:45;;;;;;;1.17;1.00;;;;;;;17.15;57.37;96076.81;10346418;28;20034;-32
2023/04/20 16:31:45;;;;;;;5.32;0.93;;;;;;;17.18;56.54;96075.97;10369831;28;20085;-33
2023/04/20 16:36:46;;;;;;;1.80;0.80;;;;;;;17.21;55.56;96076.81;10354644;28;20041;-31
2023/04/20 16:41:47;;;;;;;3.53;1.08;;;;;;;17.19;56.30;96062.47;10353571;28;20081;-32
2023/04/20 16:46:49;;;;;;;9.93;1.47;;;;;;;17.12;56.92;96073.47;10370181;28;20385;-32
2023/04/20 16:51:50;;;;;;;17.88;3.08;;;;;;;17.09;56.63;96070.97;10344772;28;20307;-33
2023/04/20 16:56:50;;;;;;;16.80;1.60;;;;;;;17.05;57.65;96085.31;10356668;28;20042;-34
2023/04/20 17:01:52;;;;;;;6.93;1.60;;;;;;;17.04;57.66;96077.72;10352365;28;20100;-32
2023/04/20 17:06:52;;;;;;;6.18;1.48;;;;;;;16.99;57.54;96079.44;10353058;28;20401;-33
2023/04/20 17:11:53;;;;;;;4.37;0.97;;;;;;;17.05;56.77;96084.47;10360976;28;20029;-32
2023/04/20 17:16:55;;;;;;;5.90;0.90;;;;;;;17.15;55.84;96086.13;10360157;28;20293;-33
2023/04/20 17:21:57;;;;;;;5.70;0.90;;;;;;;17.15;56.47;96078.53;10354460;28;20230;-33
2023/04/20 17:26:58;;;;;;;4.68;1.02;;;;;;;17.06;56.36;96081.13;10355754;28;20049;-32
2023/04/20 17:31:58;;;;;;;6.77;1.33;;;;;;;17.01;57.12;96083.66;10360486;28;20415;-33
2023/04/20 17:36:59;;;;;;;4.32;1.13;;;;;;;17.01;57.55;96087.88;10357549;28;20125;-33
2023/04/20 17:42:00;;;;;;;4.50;1.10;;;;;;;16.99;57.91;96085.34;10361664;28;20038;-33
2023/04/20 17:47:00;;;;;;;6.53;1.05;;;;;;;16.95;57.03;96082.81;10345544;28;20308;-33
2023/04/20 17:52:02;;;;;;;1.77;0.95;;;;;;;16.96;56.87;96090.41;10363627;28;20492;-32
2023/04/20 17:57:02;;;;;;;4.57;1.17;;;;;;;16.94;57.03;96087.06;10362529;28;20026;-33
2023/04/20 18:02:02;;;;;;;5.45;1.15;;;;;;;16.95;57.33;96103.91;10356048;28;20046;-33
2023/04/20 18:07:04;;;;;;;4.57;1.40;;;;;;;16.95;57.49;96088.75;10355843;28;20543;-34
2023/04/20 18:12:07;;;;;;;5.30;1.63;;;;;;;16.92;57.02;96096.31;10354904;28;20036;-32
2023/04/20 18:17:07;;;;;;;5.72;1.60;;;;;;;16.91;57.43;96097.16;10360010;28;20030;-33
2023/04/20 18:22:08;;;;;;;7.43;1.10;;;;;;;16.91;57.76;96111.50;10360193;28;20034;-33
2023/04/20 18:27:08;;;;;;;6.50;1.50;;;;;;;16.93;57.42;96117.41;10327977;28;20305;-32
2023/04/20 18:32:09;;;;;;;2.30;1.00;;;;;;;16.89;57.49;96113.22;10354780;28;20037;-33
2023/04/20 18:37:11;;;;;;;8.35;1.92;;;;;;;16.92;57.29;96123.31;10356560;28;20289;-33
2023/04/20 18:42:11;;;;;;;5.32;1.30;;;;;;;16.91;57.45;96119.91;10357563;28;20442;-32
2023/04/20 18:47:11;;;;;;;4.07;1.90;;;;;;;16.94;56.88;96127.50;10343724;28;20121;-33
2023/04/20 18:52:12;;;;;;;1.97;0.77;;;;;;;16.91;57.38;96134.25;10338962;28;20301;-33
2023/04/20 18:57:13;;;;;;;4.85;1.15;;;;;;;16.91;56.95;96136.78;10354672;28;20033;-32
2023/04/20 19:02:13;;;;;;;5.32;1.08;;;;;;;16.91;57.13;96137.63;10359691;28;20407;-33
2023/04/20 19:07:14;;;;;;;3.43;1.00;;;;;;;16.91;57.24;96134.25;10355226;28;20049;-32
2023/04/20 19:12:14;;;;;;;8.13;1.80;;;;;;;16.88;57.48;96137.63;10352440;28;20296;-33
2023/04/20 19:17:15;;;;;;;2.50;0.80;;;;;;;16.89;57.63;96146.06;10360456;28;20296;-32
2023/04/20 19:22:15;;;;;;;4.57;1.13;;;;;;;16.93;57.41;96150.25;10365332;28;20721;-32
2023/04/20 19:27:17;;;;;;;2.33;1.13;;;;;;;16.92;57.62;96148.59;10362377;28;20450;-32
2023/04/20 19:32:17;;;;;;;4.57;0.80;;;;;;;16.95;57.92;96153.63;10358238;28;20034;-33
2023/04/20 19:37:17;;;;;;;3.17;0.93;;;;;;;16.92;58.03;96153.63;10349603;28;20041;-32
2023/04/20 19:42:18;;;;;;;3.50;0.90;;;;;;;16.94;56.85;96157.00;10352262;28;20045;-33
2023/04/20 19:47:19;;;;;;;2.87;1.13;;;;;;;16.97;57.08;96162.03;10358578;28;20663;-33
2023/04/20 19:52:19;;;;;;;1.90;1.08;;;;;;;16.96;56.96;96155.28;10360222;28;20030;-32
2023/04/20 19:57:20;;;;;;;8.60;1.77;;;;;;;16.95;57.12;96158.69;10346604;28;20473;-32
2023/04/20 20:02:20;;;;;;;3.23;0.93;;;;;;;16.94;57.49;96157.00;10356126;28;20292;-33
2023/04/20 20:07:20;;;;;;;1.83;0.50;;;;;;;16.94;57.44;96151.94;10356041;28;20310;-33
2023/04/20 20:12:21;;;;;;;6.37;1.40;;;;;;;16.94;56.92;96147.75;10356555;28;20410;-33
2023/04/20 20:17:21;;;;;;;3.83;0.80;;;;;;;16.93;57.17;96141.00;10365233;28;20033;-33
2023/04/20 20:22:21;;;;;;;2.97;1.10;;;;;;;16.97;56.86;96151.91;10351244;28;20062;-32
2023/04/20 20:27:22;;;;;;;1.50;0.87;;;;;;;16.97;56.86;96162.03;10359839;28;20034;-33
2023/04/20 20:32:23;;;;;;;1.53;0.60;;;;;;;17.00;56.72;96154.47;10362616;28;20038;-32
2023/04/20 20:37:24;;;;;;;6.03;1.00;;;;;;;16.97;57.43;96156.97;10352612;28;20084;-32
2023/04/20 20:42:29;;;;;;;2.88;1.00;;;;;;;16.93;57.71;96155.31;10359247;28;20033;-32
2023/04/20 20:47:29;;;;;;;2.60;0.65;;;;;;;16.95;57.65;96149.41;10361893;28;20037;-32
2023/04/20 20:52:30;;;;;;;3.28;0.90;;;;;;;16.98;57.07;96146.88;10361896;28;20037;-32
2023/04/20 20:57:30;;;;;;;2.78;0.90;;;;;;;16.96;57.90;96151.09;10366282;28;20046;-33
2023/04/20 21:02:31;;;;;;;4.37;1.27;;;;;;;16.95;58.21;96154.47;10355987;28;20048;-33
2023/04/20 21:07:31;;;;;;;2.93;1.53;;;;;;;16.93;58.72;96147.72;10362659;28;20507;-33
2023/04/20 21:12:32;;;;;;;5.72;0.95;;;;;;;16.92;58.84;96153.63;10358048;28;20241;-33
2023/04/20 21:17:32;;;;;;;4.83;0.73;;;;;;;16.92;58.66;96148.59;10357710;28;20515;-33
2023/04/20 21:22:33;;;;;;;3.28;1.33;;;;;;;16.89;59.08;96153.66;10357938;28;20041;-33
2023/04/20 21:27:33;;;;;;;3.03;1.13;;;;;;;16.87;58.99;96147.75;10357626;28;20077;-32
2023/04/20 21:32:33;;;;;;;7.07;1.00;;;;;;;16.89;58.99;96148.59;10344392;28;20046;-33
2023/04/20 21:37:34;;;;;;;2.17;1.20;;;;;;;16.86;59.74;96148.59;10359152;28;20068;-33
2023/04/20 21:42:34;;;;;;;2.00;1.00;;;;;;;16.86;58.94;96139.34;10362241;28;20462;-32
2023/04/20 21:47:34;;;;;;;3.83;0.90;;;;;;;16.85;60.20;96147.78;10359903;28;20574;-33
2023/04/20 21:52:35;;;;;;;3.43;1.07;;;;;;;16.89;60.29;96148.59;10359718;28;20420;-33
2023/04/20 21:57:35;;;;;;;3.70;1.75;;;;;;;16.88;59.17;96151.94;10361240;28;20549;-33
2023/04/20 22:02:35;;;;;;;1.83;1.00;;;;;;;16.89;58.75;96153.66;10360111;28;20041;-33
2023/04/20 22:07:37;;;;;;;4.03;0.97;;;;;;;16.86;58.96;96156.19;10367336;28;20038;-32
2023/04/20 22:12:39;;;;;;;6.70;1.35;;;;;;;16.87;59.00;96165.44;10356610;28;20074;-32
2023/04/20 22:17:40;;;;;;;3.83;0.93;;;;;;;16.86;59.32;96168.81;10356614;28;20045;-33
2023/04/20 22:22:40;;;;;;;2.95;1.20;;;;;;;16.84;59.10;96171.34;10354413;28;20034;-33
2023/04/20 22:27:41;;;;;;;3.37;1.27;;;;;;;16.85;59.34;96180.63;10361087;28;20477;-33
2023/04/20 22:32:41;;;;;;;5.30;1.00;;;;;;;16.84;59.25;96193.28;10350866;28;20421;-33
2023/04/20 22:37:41;;;;;;;3.47;1.17;;;;;;;16.86;59.08;96184.00;10350219;28;20312;-33
2023/04/20 22:42:42;;;;;;;3.67;1.13;;;;;;;16.85;59.20;96187.38;10365494;28;20049;-33
2023/04/20 22:47:42;;;;;;;3.63;1.00;;;;;;;16.82;59.28;96182.31;10374844;28;20121;-32
2023/04/20 22:52:43;;;;;;;3.83;0.90;;;;;;;16.84;59.68;96188.22;10358462;28;20096;-33
2023/04/20 22:57:43;;;;;;;5.70;1.10;;;;;;;16.85;59.84;96183.16;10367763;28;20632;-33
2023/04/20 23:02:43;;;;;;;2.60;1.37;;;;;;;16.88;59.85;96174.69;10374026;28;20034;-33
2023/04/20 23:07:44;;;;;;;4.47;1.00;;;;;;;16.88;59.13;96172.19;10350513;28;20300;-33
2023/04/20 23:12:46;;;;;;;3.92;1.35;;;;;;;16.89;58.98;96173.88;10367272;28;20087;-33
2023/04/20 23:17:47;;;;;;;0.82;0.63;;;;;;;16.89;58.75;96181.47;10360686;28;20030;-33